Pagrindinis puslapis
METAR-TAF:

METAR-TAF

Oro uostai :

Nikosija, Kipras

platuma: 35-09N, ilguma: 033-30E, Aukštis: 91 m

Dabartinis oras

Ataskaita buvo paskelbta 54 minutes, ne 23:50 UTC
Vėjas 10 kt iš Vakarų/Šiaurės Vakarų
Temperatūra 9°C
Drėgmė 87%
Slėgis 1013 hPa
Matomumas 10 km arba daugiau
Mažai debesys ne aukštis 2000 ft

METAR: LCEN 242350Z 29010KT 9999 FEW020 09/07 Q1013 NOSIG RMK RWY11 29007KT

Laikas: 02:44 (00:44 UTC)

Prognozė

Ataskaita buvo paskelbta 8 valandos ir 4 minutes, ne 16:40 UTC
Prognozė galioja nuo 24 metu 18 UTC su 25 metu 18 UTC
Vėjas 12 kt iš Šiaurės/Šiaurės Vakarų
Matomumas 10 km arba daugiau
Išsisklaidę debesys ne aukštis 2500 ft
Tikimybė 30% :
Laikinai
nuo 25 metu 00 UTC su 25 metu 04 UTC
Vėjas 2 kt nuo kintamojo kryptimis
Matomumas: 4000 m
Su prošvaistėmis ne aukštis 1000 ft
rūkana

TAF: LCEN 241640Z 2418/2518 34012KT 9999 SCT025 PROB30 TEMPO 2500/2504 VRB02KT 4000 BR BKN010

Orai ataskaitas ir orų prognozės (METAR, TAF).

turimą stotys yra geltonos ir raudonos taškus žemėlapyje.

Perkelti pele per norėdami pamatyti stoties vardą.

Tada spustelėkite, norėdami matyti oro stebėjimo ir prognozės.

Norėdami pakeisti žemėlapį: spustelėkite ant žalios mygtukų su juodo kryžiaus žemyn,; žalią mygtuką su brūkšneliu, jei norite nutolinti; arba žalių rodyklių gretimoms žemėlapius.


METAR-TAF: